Tiempo atmosférico en la estación meteorológica de Elgoibar, Gipuzkoa (120 m.)



Fecha
DESCASC
Temp. máxima en grados centígrados (hora)
DESCASC
Temp. mínima en grados centígrados (hora)
DESCASC
Temp. media en grados centígrados
DESCASC
Racha de viento máxima en m/sg (hora)
DESCASC
Velocidad máxima media en intervalos de 10 minutos(hora)
DESCASC
Precipitaciones diarias en mm
DESCASC
Precipitaciones de 00:00 a 06:00 en mm
DESCASC
Precipitaciones de 06:00 a 12:00 en mm
DESCASC
Precipitaciones de 12:00 a 18:00 en mm
DESCASC
Precipitaciones de 18:00 a 24:00 en mm
DESCASC
18-01-2018 11.9 (14:50) 3.6 (08:30) 7.7 5 (23:20) 2.78 (23:20) 0.1 0 0.1 0 0
17-01-2018 12.1 (01:50) 6.1 (23:59) 9.1 12.5 (03:20) 3.89 (03:00) 9.8 4.6 3.7 1.4 0.1
16-01-2018 14.3 (14:50) 9.6 (11:10) 12 7.78 (05:10) 2.22 (03:10) 0.8 0 0 0 0.8
15-01-2018 10.8 (13:30) 4.7 (09:40) 7.8 10.28 (11:50) 4.17 (12:00) 2.5 2.5 0 0 0
14-01-2018 7.3 (13:00) 4.4 (00:00) 5.9 8.89 (11:40) 4.17 (11:40) 33 8.2 5.9 6.4 12.5
13-01-2018 10.1 (13:40) 5 (00:00) 7.6 15.28 (02:30) 5.83 (02:40) 12 0 0 0 12
12-01-2018 9.8 (14:00) 3 (00:00) 6.4 5 (09:50) 2.22 (04:30) 3.3 2.4 0.9 0 0
11-01-2018 6.2 (11:10) 2.3 (00:00) 4.2 10.56 (13:40) 5.28 (13:40) 33 0.5 3.8 24.3 4.4
10-01-2018 12 (17:20) 5 (00:00) 8.5 15.56 (12:50) 6.94 (15:00) 5.9 0 0 2 3.9
09-01-2018 9.4 (14:20) 1.2 (00:00) 5.3 21.39 (14:00) 7.78 (10:10) 1.2 0 0.1 1.1 0
08-01-2018 10.7 (14:40) 1.2 (00:00) 5.9 7.22 (09:30) 3.61 (08:20) 0 0 0 0 0
07-01-2018 5.6 (14:30) 0.5 (00:00) 3 7.22 (03:00) 3.61 (03:20) 22.4 20.6 1.7 0.1 0
06-01-2018 6.8 (00:00) -0.1 (00:00) 3.4 4.17 (04:20) 2.5 (13:20) 38.3 10.5 5.8 11.1 10.9
05-01-2018 15.4 (00:50) 6.7 (00:00) 11 16.39 (05:10) 8.61 (05:20) 13.9 0 3.2 6.5 4.2
04-01-2018 18 (14:30) 9.8 (09:50) 13.9 13.06 (21:50) 5.56 (21:50) 0.1 0.1 0 0 0
03-01-2018 17.3 (12:00) 11.8 (00:00) 14.5 7.22 (05:00) 3.33 (00:30) 3 0 0 2.8 0.2
02-01-2018 14 (16:10) 9.3 (00:00) 11.7 12.22 (07:50) 4.17 (07:50) 9.8 5.8 3.2 0.8 0
01-01-2018 14.3 (14:20) 4.7 (00:00) 9.5 16.39 (12:00) 7.5 (09:10) 25.4 0 0 13.1 12.3
31-12-2017 17.2 (14:20) 6.4 (00:00) 11.8 26.11 (14:10) 8.89 (01:20) 7.1 0 0 6.3 0.8
30-12-2017 18.5 (14:40) 10.9 (00:00) 14.7 16.94 (21:50) 7.22 (21:00) 0 0 0 0 0
29-12-2017 16.1 (15:00) 7.9 (00:00) 12 9.72 (10:30) 4.72 (10:30) 4.8 0.5 4.3 0 0
28-12-2017 10.9 (16:10) 4.8 (00:00) 7.8 10.28 (14:40) 5 (02:20) 22.8 5.8 4.3 8.7 4
27-12-2017 11.6 (00:10) 5 (00:00) 8.3 18.33 (00:10) 5.83 (06:40) 36.6 9.6 12.3 6.3 8.4
26-12-2017 11.4 (23:59) 4.8 (00:00) 8.1 16.67 (22:10) 6.94 (18:40) 6.2 5.3 0 0 0.9
25-12-2017 13.8 (14:30) 2.5 (00:00) 8.2 12.5 (20:50) 5 (07:10) 3 0 0 0 3
24-12-2017 13.7 (15:10) 2.4 (00:00) 8 4.17 (14:10) 2.5 (14:10) 0 0 0 0 0

Gráficas

Temp. máximas Temp. mínimas Temp. medias Precipitaciones Rachas de viento máximas Velocidades máximas media en intervalos de 10 minutos

Datos horarios

Fecha y hora oficial Temperatura (ºC) Velocidad del viento (km/h) Dirección del viento Racha (km/h) Dirección de racha Precipitación (mm) Presión (hPa) Tendencia (hPa) Humedad (%)
2018-01-22 23:00:00 11.1 0 Calma -- -- 0.6 -- -- 95
2018-01-22 22:00:00 11.2 0 Calma -- -- 0.7 -- -- 95
2018-01-22 21:00:00 11.3 0 Calma 4 Nordeste 0.5 -- -- 94
2018-01-22 20:00:00 11.4 0 Calma 9 Nordeste 0 -- -- 93
2018-01-22 19:00:00 11.6 3 Sudoeste 15 Sudoeste 0 -- -- 91
2018-01-22 18:00:00 12 9 Sudoeste 19 Sudoeste 0 -- -- 86
2018-01-22 17:00:00 12.5 9 Sudoeste 18 Sudoeste 0 -- -- 79
2018-01-22 16:00:00 13.7 10 Sudoeste 21 Sudoeste 0 -- -- 71
2018-01-22 15:00:00 14.2 9 Sudoeste 21 Sudoeste 0 -- -- 66
2018-01-22 14:00:00 14.1 9 Sudoeste 26 Sur 0 -- -- 66
2018-01-22 13:00:00 13.6 8 Sudoeste 20 Sur 0 -- -- 72
2018-01-22 12:00:00 11.8 3 Sudoeste 15 Sudoeste 0 -- -- 84
2018-01-22 11:00:00 10.5 6 Sudoeste 14 Sur 0 -- -- 90
2018-01-22 10:00:00 9.5 5 Sudoeste 16 Sudoeste 0 -- -- 95
2018-01-22 09:00:00 9.2 5 Sudoeste 12 Sudoeste 0 -- -- 95
2018-01-22 08:00:00 9.3 3 Sudoeste 10 Sudoeste 0 -- -- 96
2018-01-22 07:00:00 9.4 0 Calma 13 Sudoeste 0 -- -- 96
2018-01-22 06:00:00 9.3 0 Calma 13 Sur 0 -- -- 95
2018-01-22 05:00:00 9.5 5 Sudoeste 21 Sur 0 -- -- 94
2018-01-22 04:00:00 10 0 Calma 5 Sudoeste 0 -- -- 94
2018-01-22 03:00:00 10.7 3 Sudoeste 9 Sudoeste 0 -- -- 93
2018-01-22 02:00:00 11.1 5 Sudoeste 9 Sudoeste 0 -- -- 92
2018-01-22 01:00:00 11.4 4 Sudoeste 9 Sudoeste 0 -- -- 91
2018-01-22 00:00:00 11.4 5 Sudoeste 11 Sudoeste 0 -- -- 90
2018-01-21 23:00:00 11.4 5 Sudoeste 10 Sudoeste 0 -- -- 90
2018-01-21 22:00:00 11.7 3 Sudoeste 12 Sudoeste 0 -- -- 89
2018-01-21 21:00:00 11.6 7 Sudoeste 12 Sudoeste 0 -- -- 88
2018-01-21 20:00:00 11.9 5 Sudoeste 8 Sudoeste 0 -- -- 85
2018-01-21 19:00:00 12.5 0 Calma 10 Oeste 0 -- -- 80
2018-01-21 18:00:00 13.6 3 Oeste 15 Oeste 0 -- -- 76
2018-01-21 17:00:00 13.7 4 Oeste 23 Oeste 0 -- -- 76
2018-01-21 16:00:00 14.2 6 Oeste 15 Oeste 0 -- -- 77
2018-01-21 15:00:00 14 5 Sudoeste 10 Sudoeste 0 -- -- 78
2018-01-21 14:00:00 13.9 6 Noroeste 19 Oeste 0 -- -- 77
2018-01-21 13:00:00 13.6 4 Este 19 Nordeste 0 -- -- 80
2018-01-21 12:00:00 12.9 3 Este 14 Sudoeste 0 -- -- 83
2018-01-21 11:00:00 13 5 Oeste 42 Oeste 0 -- -- 83
2018-01-21 10:00:00 12.5 6 Oeste 26 Oeste 0 -- -- 86
2018-01-21 09:00:00 12.1 14 Oeste 39 Noroeste 0.3 -- -- 89
2018-01-21 08:00:00 11.7 3 Sudoeste 24 Noroeste 1.2 -- -- 91
2018-01-21 07:00:00 11.8 0 Calma 41 Sudoeste 2 -- -- 91
2018-01-21 06:00:00 11.8 3 Oeste 18 Oeste 1.3 -- -- 90
2018-01-21 05:00:00 12.2 6 Oeste 27 Sudoeste 1.2 -- -- 89
2018-01-21 04:00:00 12.2 6 Oeste 35 Noroeste 0.4 -- -- 87
2018-01-21 03:00:00 12.4 8 Oeste 36 Noroeste 0.4 -- -- 86
2018-01-21 02:00:00 12.4 9 Oeste 33 Sudoeste 0.2 -- -- 85
2018-01-21 01:00:00 12.4 9 Sudoeste 36 Sudoeste 0.1 -- -- 85
2018-01-21 00:00:00 12.2 5 Sudoeste 22 Oeste 0 -- -- 86
2018-01-20 23:00:00 12.3 8 Sudoeste 28 Sudoeste 0.1 -- -- 85
2018-01-20 22:00:00 12.3 7 Oeste 28 Noroeste 0.1 -- -- 89
2018-01-20 21:00:00 11.6 5 Sudoeste 25 Sudoeste 0.3 -- -- 94
2018-01-20 20:00:00 10.9 0 Calma 14 Oeste 0.4 -- -- 94
2018-01-20 19:00:00 11 8 Sudoeste 17 Sudoeste 0.1 -- -- 91
2018-01-20 18:00:00 11.8 9 Sudoeste 24 Sudoeste 0 -- -- 87
2018-01-20 17:00:00 11.2 12 Sudoeste 29 Sudoeste 0 -- -- 89
2018-01-20 16:00:00 11.2 10 Sudoeste 28 Sudoeste 0.5 -- -- 91
2018-01-20 15:00:00 9.9 11 Sudoeste 26 Sudoeste 1 -- -- 91
2018-01-20 14:00:00 9.9 14 Sudoeste 32 Sudoeste 0.1 -- -- 83
2018-01-20 13:00:00 11 9 Sudoeste 27 Oeste 0 -- -- 68
2018-01-20 12:00:00 9.9 9 Sudoeste 22 Sudoeste 0 -- -- 74
2018-01-20 11:00:00 9.1 6 Sudoeste 19 Sudoeste 0 -- -- 83
2018-01-20 10:00:00 7.7 5 Sudoeste 17 Sudoeste 0 -- -- 93
2018-01-20 09:00:00 7.1 5 Sur 13 Sudoeste 0 -- -- 95
2018-01-20 08:00:00 7.3 3 Sudoeste 13 Sudoeste 0 -- -- 95
2018-01-20 07:00:00 7.7 0 Calma 16 Oeste 0 -- -- 97
2018-01-20 06:00:00 7.3 3 Sudoeste 12 Sudoeste 0 -- -- 97
2018-01-20 05:00:00 7.2 3 Sudoeste 11 Sudoeste 0 -- -- 97
2018-01-20 04:00:00 7.3 4 Sudoeste 12 Sudoeste 0 -- -- 97
2018-01-20 03:00:00 7.4 0 Calma 7 Sur 0 -- -- 97
2018-01-20 02:00:00 7.6 0 Calma 7 Sudoeste 0 -- -- 97
2018-01-20 01:00:00 8.1 0 Calma 7 Oeste 0.2 -- -- 96
2018-01-20 00:00:00 8.3 0 Calma 8 Sur 0 -- -- 95
2018-01-19 23:00:00 8.4 0 Calma 4 Este 0.2 -- -- 95
2018-01-19 22:00:00 8.5 3 Este 7 Este 1.3 -- -- 94
2018-01-19 21:00:00 8.7 0 Calma 9 Sudeste 0.5 -- -- 92
2018-01-19 20:00:00 9.2 0 Calma 19 Sudoeste 2.2 -- -- 90
2018-01-19 19:00:00 9.1 5 Oeste 17 Noroeste 1.2 -- -- 90
2018-01-19 18:00:00 9.1 2 Oeste 22 Sudoeste 0.4 -- -- 90
2018-01-19 17:00:00 9.2 2 Sudoeste 13 Sudoeste 0.5 -- -- 90
2018-01-19 16:00:00 9.4 4 Sudoeste 15 Oeste 0.6 -- -- 90
2018-01-19 15:00:00 9.4 0 Calma 19 Sudoeste 0.2 -- -- 89
2018-01-19 14:00:00 10 7 Sudoeste 18 Sudoeste 0.2 -- -- 86
2018-01-19 13:00:00 9.7 0 Calma 8 Oeste 0.5 -- -- 96
2018-01-19 12:00:00 9.6 5 Este 9 Este 1 -- -- 96
2018-01-19 11:00:00 9.7 4 Sudeste 12 Nordeste 1.1 -- -- 96
2018-01-19 10:00:00 9.1 0 Calma 6 Sudoeste 1.4 -- -- 96
2018-01-19 09:00:00 8.9 0 Calma 6 Oeste 0 -- -- 95
2018-01-19 08:00:00 8.9 0 Calma 8 Este 0.1 -- -- 96
2018-01-19 07:00:00 9 0 Calma 17 Oeste 0.2 -- -- 96
2018-01-19 06:00:00 8.7 0 Calma 13 Sudoeste 0 -- -- 95
2018-01-19 05:00:00 8.7 3 Sudoeste 13 Sudoeste 0.1 -- -- 95
2018-01-19 04:00:00 8.6 6 Sudoeste 17 Sudoeste 0 -- -- 94
2018-01-19 03:00:00 8.5 10 Sudoeste 20 Sudoeste 0 -- -- 93
2018-01-19 02:00:00 8.9 9 Sudoeste 17 Sudoeste 0 -- -- 90
2018-01-19 01:00:00 8.9 2 Nordeste 13 Sudoeste 0 -- -- 89
2018-01-19 00:00:00 8.7 7 Sudoeste 18 Sudoeste 0 -- -- 90
2018-01-18 23:00:00 8.6 8 Sudoeste 14 Oeste 0 -- -- 90
2018-01-18 22:00:00 8.6 0 Calma 10 Sudoeste 0 -- -- 91
2018-01-18 21:00:00 8.2 0 Calma 14 Sudoeste 0 -- -- 91
2018-01-18 20:00:00 7.9 2 Noroeste 7 Sur 0 -- -- 90
2018-01-18 19:00:00 7.8 0 Calma -- -- 0 -- -- 86
2018-01-18 18:00:00 8.8 0 Calma -- -- 0 -- -- 80
2018-01-18 17:00:00 10.2 0 Calma -- -- 0 -- -- 75
2018-01-18 16:00:00 11.1 0 Calma -- -- 0 -- -- 71
2018-01-18 15:00:00 11.7 0 Calma -- -- 0 -- -- 69
2018-01-18 14:00:00 10.6 0 Calma -- -- 0 -- -- 77
2018-01-18 13:00:00 8.2 0 Calma -- -- 0 -- -- 94
2018-01-18 12:00:00 5.7 0 Calma 6 Este 0 -- -- 98
2018-01-18 11:00:00 4 0 Calma 5 Sudeste 0 -- -- 98
2018-01-18 10:00:00 3.7 0 Calma 6 Sudeste 0 -- -- 97
2018-01-18 09:00:00 3.7 2 Sur 16 Sudoeste 0.1 -- -- 97
2018-01-18 08:00:00 3.8 5 Sudoeste 12 Sudoeste 0 -- -- 97
2018-01-18 07:00:00 4.2 0 Calma 10 Sudoeste 0 -- -- 97
2018-01-18 06:00:00 4.5 2 Sudoeste 7 Oeste 0 -- -- 97
2018-01-18 05:00:00 4.9 0 Calma -- -- 0 -- -- 97
2018-01-18 04:00:00 5 0 Calma 8 Este 0 -- -- 96
2018-01-18 03:00:00 5.2 0 Calma -- -- 0 -- -- 96
2018-01-18 02:00:00 4.9 0 Calma -- -- 0 -- -- 95
2018-01-18 01:00:00 5.5 0 Calma 8 Sur 0 -- -- 94
2018-01-18 00:00:00 6.1 0 Calma 12 Sudoeste 0 -- -- 94
2018-01-17 23:00:00 7.3 6 Sudoeste 13 Sudoeste 0 -- -- 94
2018-01-17 22:00:00 7.6 0 Calma 9 Sudoeste 0 -- -- 94
2018-01-17 21:00:00 7.9 2 Sudoeste 10 Sudoeste 0 -- -- 93
2018-01-17 20:00:00 8.1 0 Calma 11 Sudoeste 0.1 -- -- 92
2018-01-17 19:00:00 8.3 0 Calma 8 Este 0 -- -- 91
2018-01-17 18:00:00 8.6 4 Este 9 Este 0.3 -- -- 88
2018-01-17 17:00:00 9.6 2 Sudoeste 9 Nordeste 0 -- -- 79
2018-01-17 16:00:00 10.1 3 Sudoeste 16 Oeste 0.1 -- -- 75
2018-01-17 15:00:00 10 7 Oeste 22 Oeste 0.1 -- -- 78
2018-01-17 14:00:00 9.5 5 Oeste 26 Oeste 0.6 -- -- 82
2018-01-17 13:00:00 10.2 0 Calma 17 Sudoeste 0.3 -- -- 83
2018-01-17 12:00:00 9.6 8 Sudoeste 17 Sudoeste 0.1 -- -- 82
2018-01-17 11:00:00 9 4 Noroeste 16 Oeste 0.4 -- -- 82
2018-01-17 10:00:00 8.8 4 Sudoeste 16 Oeste 0.4 -- -- 86
2018-01-17 09:00:00 9.1 5 Sudoeste 31 Sudoeste 1.1 -- -- 81
2018-01-17 08:00:00 9.5 4 Sudoeste 17 Oeste 0.1 -- -- 82
2018-01-17 07:00:00 9.4 6 Oeste 31 Oeste 1.6 -- -- 84
2018-01-17 06:00:00 9.9 6 Sur 38 Oeste 0.6 -- -- 80
2018-01-17 05:00:00 10.5 9 Oeste 40 Noroeste 0.5 -- -- 81
2018-01-17 04:00:00 10.7 7 Oeste 45 Noroeste 1.5 -- -- 83
2018-01-17 03:00:00 11.6 14 Noroeste 40 Noroeste 0.7 -- -- 78
2018-01-17 02:00:00 11.8 3 Norte 42 Noroeste 0.8 -- -- 82
2018-01-17 01:00:00 11.7 4 Norte 21 Noroeste 0.5 -- -- 93
2018-01-17 00:00:00 10.3 0 Calma 12 Sur 0.8 -- -- 91
2018-01-16 23:00:00 10.8 0 Calma 9 Oeste 0 -- -- 85
2018-01-16 22:00:00 11.6 3 Oeste 10 Sudoeste 0 -- -- 80
2018-01-16 21:00:00 11.5 2 Sudoeste 13 Sudoeste 0 -- -- 81
2018-01-16 20:00:00 11.6 3 Sudoeste 12 Sudoeste 0 -- -- 81
2018-01-16 19:00:00 12 0 Calma 13 Sudoeste 0 -- -- 76
2018-01-16 18:00:00 12.4 0 Calma 9 Sudoeste 0 -- -- 73
2018-01-16 17:00:00 13.1 4 Sudoeste 12 Sudoeste 0 -- -- 69
2018-01-16 16:00:00 13.3 4 Sudoeste 12 Sur 0 -- -- 67
2018-01-16 15:00:00 14.2 5 Sudoeste 15 Sudoeste 0 -- -- 65
2018-01-16 14:00:00 13.1 5 Sudoeste 13 Sudoeste 0 -- -- 70
2018-01-16 13:00:00 11.1 2 Nordeste 7 Nordeste 0 -- -- 81
2018-01-16 12:00:00 10.2 0 Calma 4 Norte 0 -- -- 84
2018-01-16 11:00:00 9.7 3 Nordeste 6 Sur 0 -- -- 80
2018-01-16 10:00:00 9.9 0 Calma 8 Oeste 0 -- -- 73
2018-01-16 09:00:00 10.4 5 Sudoeste 18 Sudoeste 0 -- -- 67
2018-01-16 08:00:00 10.5 3 Sudoeste 13 Sudoeste 0 -- -- 67
2018-01-16 07:00:00 10.6 6 Sudoeste 14 Sudoeste 0 -- -- 65
2018-01-16 06:00:00 10.8 4 Sudoeste 28 Sudeste 0 -- -- 64
2018-01-16 05:00:00 10.7 4 Sudoeste 15 Sudoeste 0 -- -- 64
2018-01-16 04:00:00 10.7 5 Sudoeste 21 Oeste 0 -- -- 63
2018-01-16 03:00:00 10.8 5 Sur 19 Sudoeste 0 -- -- 61
2018-01-16 02:00:00 10.7 5 Sudoeste 17 Sur 0 -- -- 61
2018-01-16 01:00:00 10.3 4 Sudoeste 21 Sur 0 -- -- 64
2018-01-16 00:00:00 10 6 Sudoeste 16 Sudoeste 0 -- -- 64
2018-01-15 23:00:00 9.1 5 Sudoeste 22 Sudoeste 0 -- -- 67
2018-01-15 22:00:00 9.4 4 Sudoeste 22 Sudoeste 0 -- -- 61
2018-01-15 21:00:00 9.5 8 Sur 24 Sudeste 0 -- -- 61
2018-01-15 20:00:00 9.7 8 Sur 29 Sudoeste 0 -- -- 57
2018-01-15 19:00:00 9.1 3 Sudoeste 23 Sudoeste 0 -- -- 55
2018-01-15 18:00:00 9.3 5 Sur 32 Sur 0 -- -- 55
2018-01-15 17:00:00 9.8 13 Sur 31 Sudeste 0 -- -- 55
2018-01-15 16:00:00 10.2 4 Sur 21 Sur 0 -- -- 55
2018-01-15 15:00:00 10.2 10 Sur 33 Sudoeste 0 -- -- 55
2018-01-15 14:00:00 10.3 9 Sur 27 Sudeste 0 -- -- 59
2018-01-15 13:00:00 10.3 4 Sudoeste 35 Sur 0 -- -- 64
2018-01-15 12:00:00 9 15 Sur 37 Sur 0 -- -- 69
2018-01-15 11:00:00 7.5 9 Sudoeste 17 Sur 0 -- -- 92
2018-01-15 10:00:00 5 0 Calma 8 Sudoeste 0 -- -- 97
2018-01-15 09:00:00 5 0 Calma -- -- 0 -- -- 96
2018-01-15 08:00:00 5.3 0 Calma 7 Noroeste 0 -- -- 96
2018-01-15 07:00:00 5.3 0 Calma 12 Sudoeste 0 -- -- 96
2018-01-15 06:00:00 5.3 0 Calma 9 Sudoeste 0 -- -- 96
2018-01-15 05:00:00 5.6 3 Sudoeste 9 Oeste 0.2 -- -- 95
2018-01-15 04:00:00 5.8 2 Noroeste 10 Sudoeste 0 -- -- 95
2018-01-15 03:00:00 5.8 0 Calma 13 Sudoeste 0.3 -- -- 95
2018-01-15 02:00:00 6 0 Calma 16 Sudoeste 0.8 -- -- 95
2018-01-15 01:00:00 5.9 3 Sudoeste 14 Sudoeste 1.2 -- -- 95
2018-01-15 00:00:00 5.8 3 Sudoeste 11 Noroeste 0.2 -- -- 94
2018-01-14 23:00:00 6 0 Calma 14 Oeste 0.1 -- -- 94
2018-01-14 22:00:00 6.3 0 Calma 18 Sudoeste 2.3 -- -- 94
2018-01-14 21:00:00 6.2 9 Oeste 16 Sur 4.7 -- -- 94
2018-01-14 20:00:00 6.4 7 Oeste 16 Sudoeste 1.5 -- -- 93
2018-01-14 19:00:00 6.5 3 Sur 21 Sudoeste 3.7 -- -- 92
2018-01-14 18:00:00 6.7 10 Sudoeste 21 Sudoeste 0.4 -- -- 94
2018-01-14 17:00:00 6.7 6 Sur 10 Sur 3.4 -- -- 94
2018-01-14 16:00:00 6.9 0 Calma 13 Oeste 1.7 -- -- 91
2018-01-14 15:00:00 7.1 0 Calma 20 Sudoeste 0.7 -- -- 85
2018-01-14 14:00:00 7.1 10 Sudoeste 27 Sudoeste 0.2 -- -- 83
2018-01-14 13:00:00 7.3 10 Sudoeste 27 Sudoeste 0 -- -- 82
2018-01-14 12:00:00 6.9 12 Sudoeste 32 Sudoeste 0.2 -- -- 85
2018-01-14 11:00:00 6.2 8 Sudoeste 22 Sudoeste 1 -- -- 94
2018-01-14 10:00:00 5.4 7 Sudoeste 16 Sudoeste 2.1 -- -- 94
2018-01-14 09:00:00 5.4 7 Sudoeste 17 Sudoeste 1.2 -- -- 94
2018-01-14 08:00:00 5.8 9 Sudoeste 22 Sudoeste 0.2 -- -- 94
2018-01-14 07:00:00 4.9 8 Sudoeste 18 Sudoeste 1.2 -- -- 94
2018-01-14 06:00:00 4.7 6 Oeste 16 Oeste 1.7 -- -- 94
2018-01-14 05:00:00 4.5 2 Sudoeste 13 Sudoeste 0.9 -- -- 94
2018-01-14 04:00:00 4.5 0 Calma 6 Oeste 1.6 -- -- 94
2018-01-14 03:00:00 4.5 0 Calma 12 Sur 1.6 -- -- 93
2018-01-14 02:00:00 4.6 5 Oeste 15 Sudoeste 1.3 -- -- 91
2018-01-14 01:00:00 4.9 3 Oeste 11 Sudoeste 1.1 -- -- 90
2018-01-14 00:00:00 5.3 3 Norte 18 Sur 1.8 -- -- 87
2018-01-13 23:00:00 5.5 4 Sudoeste 19 Sudoeste 2.7 -- -- 88
2018-01-13 22:00:00 5.6 4 Sudoeste 19 Sudoeste 3 -- -- 90
2018-01-13 21:00:00 5.8 8 Sudoeste 19 Sudoeste 2.9 -- -- 90
2018-01-13 20:00:00 6.1 9 Sudoeste 22 Sudoeste 1.3 -- -- 86
2018-01-13 19:00:00 6.4 9 Sudoeste 27 Sudoeste 0.3 -- -- 81
2018-01-13 18:00:00 7.4 12 Sudoeste 22 Sudoeste 0 -- -- 69
2018-01-13 17:00:00 9.1 8 Sudoeste 24 Sudoeste 0 -- -- 57
2018-01-13 16:00:00 9.4 5 Sur 15 Sur 0 -- -- 55
2018-01-13 15:00:00 9.7 4 Sudeste 23 Sudoeste 0 -- -- 54
2018-01-13 14:00:00 9.8 7 Sudeste 23 Oeste 0 -- -- 53
2018-01-13 13:00:00 9.8 9 Sudoeste 35 Sur 0 -- -- 54
2018-01-13 12:00:00 9.6 11 Sudoeste 38 Oeste 0 -- -- 54
2018-01-13 11:00:00 9.6 11 Sudoeste 31 Sudoeste 0 -- -- 53
2018-01-13 10:00:00 9.1 12 Sudoeste 39 Sudoeste 0 -- -- 54
2018-01-13 09:00:00 9 13 Sudoeste 39 Sudoeste 0 -- -- 55
2018-01-13 08:00:00 9 13 Sudoeste 36 Sudoeste 0 -- -- 55
2018-01-13 07:00:00 8.9 13 Sudoeste 45 Sudoeste 0 -- -- 56
2018-01-13 06:00:00 9 14 Sudoeste 41 Sudoeste 0 -- -- 55
2018-01-13 05:00:00 9.2 6 Sudoeste 44 Sudoeste 0 -- -- 53
2018-01-13 04:00:00 9.4 12 Sudoeste 44 Oeste 0 -- -- 50
2018-01-13 03:00:00 9.8 14 Sur 55 Sur 0 -- -- 49
2018-01-13 02:00:00 8.9 8 Sudoeste 46 Sur 0 -- -- 54
2018-01-13 01:00:00 8.4 10 Sur 37 Sur 0 -- -- 61
2018-01-13 00:00:00 5 0 Calma 15 Sur 0 -- -- 94
2018-01-12 23:00:00 4.8 0 Calma 13 Oeste 0 -- -- 94
2018-01-12 22:00:00 4.8 0 Calma 7 Sur 0 -- -- 94
2018-01-12 21:00:00 5 0 Calma 12 Sudoeste 0 -- -- 93
2018-01-12 20:00:00 5.5 0 Calma 5 Sudoeste 0 -- -- 91
2018-01-12 19:00:00 6.1 0 Calma 5 Este 0 -- -- 88
2018-01-12 18:00:00 7.6 0 Calma -- -- 0 -- -- 85
2018-01-12 17:00:00 9.1 0 Calma -- -- 0 -- -- 84
2018-01-12 16:00:00 9.2 0 Calma 4 Sudeste 0 -- -- 85
2018-01-12 15:00:00 9 4 Sur 9 Sudoeste 0 -- -- 87
2018-01-12 14:00:00 9.7 3 Sudoeste 10 Sudoeste 0 -- -- 94
2018-01-12 13:00:00 8.3 0 Calma -- -- 0 -- -- 97
2018-01-12 12:00:00 6.9 0 Calma -- -- 0 -- -- 97
2018-01-12 11:00:00 5.7 0 Calma 13 Sudoeste 0 -- -- 97
2018-01-12 10:00:00 4.9 2 Sudoeste 18 Sudoeste 0.1 -- -- 97
2018-01-12 09:00:00 4.4 0 Calma 10 Sudoeste 0.1 -- -- 97
2018-01-12 08:00:00 4.3 0 Calma 11 Sudoeste 0.5 -- -- 97
2018-01-12 07:00:00 4.1 0 Calma 10 Sudoeste 0.2 -- -- 97
2018-01-12 06:00:00 4 3 Sudoeste 10 Sudoeste 0.4 -- -- 97
2018-01-12 05:00:00 3.8 0 Calma 14 Sudoeste 0.1 -- -- 97
2018-01-12 04:00:00 3.7 6 Sudoeste 15 Sudoeste 0.7 -- -- 96
2018-01-12 03:00:00 3.7 3 Sudoeste 12 Sudoeste 1 -- -- 96
2018-01-12 02:00:00 3.4 0 Calma 9 Sur 0.1 -- -- 96
2018-01-12 01:00:00 3.2 0 Calma 8 Sudoeste 0.1 -- -- 96
2018-01-12 00:00:00 3.6 0 Calma 8 Sudoeste 0.3 -- -- 95
2018-01-11 23:00:00 3.3 4 Sudoeste 14 Sudoeste 0 -- -- 95
2018-01-11 22:00:00 3.3 4 Sudeste 13 Sudoeste 0 -- -- 95
2018-01-11 21:00:00 3.2 2 Sur 17 Sudoeste 0.1 -- -- 96
2018-01-11 20:00:00 3.1 8 Sudoeste 29 Sudoeste 0.1 -- -- 96
2018-01-11 19:00:00 2.9 5 Sur 23 Sudoeste 3.9 -- -- 96
2018-01-11 18:00:00 2.7 5 Sudoeste 18 Sudoeste 5.4 -- -- 94
2018-01-11 17:00:00 2.6 11 Sudoeste 31 Sudoeste 6.1 -- -- 93
2018-01-11 16:00:00 2.8 10 Sudoeste 32 Sudoeste 4.8 -- -- 91
2018-01-11 15:00:00 2.5 17 Sudoeste 38 Sudoeste 3.9 -- -- 88
2018-01-11 14:00:00 4.1 15 Sudoeste 38 Sudoeste 2.2 -- -- 86
2018-01-11 13:00:00 5.4 17 Sudoeste 35 Sudoeste 1.9 -- -- 85
2018-01-11 12:00:00 5.8 11 Sudoeste 27 Sudoeste 1.8 -- -- 85
2018-01-11 11:00:00 6 13 Sudoeste 30 Sudoeste 0.3 -- -- 85
2018-01-11 10:00:00 5.2 10 Sudoeste 22 Sudoeste 0.6 -- -- 89
2018-01-11 09:00:00 5.1 6 Sudoeste 18 Sudoeste 0.6 -- -- 89
2018-01-11 08:00:00 4.6 7 Sudoeste 19 Sudoeste 0 -- -- 89
2018-01-11 07:00:00 4.9 9 Sudoeste 27 Sudoeste 0.5 -- -- 87
2018-01-11 06:00:00 4.3 7 Sudoeste 18 Sudoeste 0.4 -- -- 89
2018-01-11 05:00:00 3.9 8 Sudoeste 17 Sudoeste 0.1 -- -- 89
2018-01-11 04:00:00 4.1 9 Sudoeste 20 Sudoeste 0 -- -- 89
2018-01-11 03:00:00 3.6 10 Sudoeste 21 Sudoeste 0 -- -- 89
2018-01-11 02:00:00 4 6 Sudoeste 23 Sudoeste 0 -- -- 90
2018-01-11 01:00:00 4.2 14 Sudoeste 22 Sudoeste 0 -- -- 91
2018-01-11 00:00:00 5.2 10 Sudoeste 18 Sudoeste 0 -- -- 87
2018-01-10 23:00:00 6.2 9 Sudoeste 15 Oeste 0 -- -- 83
2018-01-10 22:00:00 7.3 5 Sudoeste 22 Sudoeste 0 -- -- 78
2018-01-10 21:00:00 6.7 3 Oeste 18 Sudoeste 0.1 -- -- 87
2018-01-10 20:00:00 7.5 3 Sudoeste 32 Sudoeste 1.5 -- -- 81
2018-01-10 19:00:00 7.5 9 Sudoeste 23 Sudoeste 2.3 -- -- 85
2018-01-10 18:00:00 8.2 11 Oeste 48 Noroeste 2 -- -- 75
2018-01-10 17:00:00 11.5 5 Sur 32 Sudeste 0 -- -- 59
2018-01-10 16:00:00 11.2 11 Sur 45 Este 0 -- -- 59
2018-01-10 15:00:00 11.1 25 Sur 50 Sudeste 0 -- -- 58
2018-01-10 14:00:00 11.2 9 Sudoeste 40 Sudoeste 0 -- -- 58
2018-01-10 13:00:00 10.7 24 Sur 56 Sur 0 -- -- 60
2018-01-10 12:00:00 10.6 17 Sur 45 Sudoeste 0 -- -- 63
2018-01-10 11:00:00 9.5 6 Sur 22 Sudoeste 0 -- -- 67
2018-01-10 10:00:00 7.4 7 Sudoeste 27 Sur 0 -- -- 72
2018-01-10 09:00:00 8 7 Sudoeste 30 Sur 0 -- -- 70
2018-01-10 08:00:00 7.7 10 Sur 31 Sudoeste 0 -- -- 70
2018-01-10 07:00:00 8.2 12 Sur 38 Sur 0 -- -- 67
2018-01-10 06:00:00 8.5 9 Sudeste 38 Sudoeste 0 -- -- 67
2018-01-10 05:00:00 8.1 13 Sur 35 Sur 0 -- -- 68
2018-01-10 04:00:00 7.9 8 Sudoeste 37 Sur 0 -- -- 68
2018-01-10 03:00:00 8.4 19 Sur 41 Sur 0 -- -- 66
2018-01-10 02:00:00 8.3 9 Sudoeste 37 Sur 0 -- -- 66
2018-01-10 01:00:00 8.5 19 Sur 52 Sur 0 -- -- 65
2018-01-10 00:00:00 8.3 19 Sur 48 Sur 0 -- -- 64
2018-01-09 23:00:00 8.4 22 Sur 54 Sudeste 0 -- -- 64
2018-01-09 22:00:00 8.4 22 Sur 45 Sudeste 0 -- -- 65
2018-01-09 21:00:00 8.1 18 Sur 52 Sur 0 -- -- 67
2018-01-09 20:00:00 7.9 23 Sur 53 Sur 0 -- -- 67
2018-01-09 19:00:00 7 14 Sudeste 57 Sur 0 -- -- 72
2018-01-09 18:00:00 6.5 18 Sur 60 Sur 1.1 -- -- 73
2018-01-09 17:00:00 7.2 13 Sur 44 Sudoeste 0 -- -- 62
2018-01-09 16:00:00 8.7 9 Sur 44 Sur 0 -- -- 49
2018-01-09 15:00:00 9.2 18 Sur 72 Sudeste 0 -- -- 45
2018-01-09 14:00:00 9 23 Sur 77 Oeste 0 -- -- 46
2018-01-09 13:00:00 8.8 11 Sudoeste 50 Sudoeste 0 -- -- 46
2018-01-09 12:00:00 8.4 9 Sudeste 45 Sudoeste 0 -- -- 45
2018-01-09 11:00:00 7.9 23 Sur 67 Sur 0 -- -- 46
2018-01-09 10:00:00 7.4 24 Sur 55 Sudeste 0.1 -- -- 48
2018-01-09 09:00:00 6.9 22 Sur 54 Sur 0 -- -- 54
2018-01-09 08:00:00 6.7 15 Sur 48 Sudeste 0 -- -- 57
2018-01-09 07:00:00 6.6 16 Sur 37 Sur 0 -- -- 61
2018-01-09 06:00:00 3.9 12 Sudoeste 24 Sur 0 -- -- 78
2018-01-09 05:00:00 5 11 Sur 32 Sur 0 -- -- 75
2018-01-09 04:00:00 2.4 12 Sudoeste 37 Sudoeste 0 -- -- 86
2018-01-09 03:00:00 1.9 8 Sudoeste 22 Sudoeste 0 -- -- 89
2018-01-09 02:00:00 1.9 4 Sudoeste 18 Oeste 0 -- -- 90
2018-01-09 01:00:00 2.2 8 Sudoeste 21 Oeste 0 -- -- 90
2018-01-09 00:00:00 1.2 2 Sur 14 Sudoeste 0 -- -- 91
2018-01-08 23:00:00 1.6 0 Calma 3 Este 0 -- -- 91
2018-01-08 22:00:00 2.1 0 Calma 8 Sudoeste 0 -- -- 89
2018-01-08 21:00:00 2.6 4 Sudoeste 10 Sudoeste 0 -- -- 86
2018-01-08 20:00:00 3.3 0 Calma 11 Sudoeste 0 -- -- 82
2018-01-08 19:00:00 4.4 0 Calma 13 Sudoeste 0 -- -- 79
2018-01-08 18:00:00 6 6 Sudoeste 14 Sudoeste 0 -- -- 73
2018-01-08 17:00:00 7.6 0 Calma 6 Sudeste 0 -- -- 64
2018-01-08 16:00:00 8.9 3 Sur 8 Sur 0 -- -- 60
2018-01-08 15:00:00 9.9 5 Sur 10 Sudoeste 0 -- -- 57
2018-01-08 14:00:00 9.5 5 Sur 17 Sudoeste 0 -- -- 60
2018-01-08 13:00:00 8.2 8 Sudoeste 22 Sudoeste 0 -- -- 68
2018-01-08 12:00:00 5.8 12 Sudoeste 24 Sudoeste 0 -- -- 79
2018-01-08 11:00:00 4.8 10 Sudoeste 23 Sudoeste 0 -- -- 84
2018-01-08 10:00:00 4.4 8 Sudoeste 26 Sudoeste 0 -- -- 88
2018-01-08 09:00:00 3 5 Sudoeste 23 Oeste 0 -- -- 97
2018-01-08 08:00:00 2.9 9 Sudoeste 19 Sudoeste 0 -- -- 98
2018-01-08 07:00:00 2.2 0 Calma -- -- 0 -- -- 98
2018-01-08 06:00:00 2.4 0 Calma -- -- 0 -- -- 98
2018-01-08 05:00:00 2.5 0 Calma -- -- 0 -- -- 98
2018-01-08 04:00:00 2.4 0 Calma -- -- 0 -- -- 98
2018-01-08 03:00:00 2.5 0 Calma 6 Sudeste 0 -- -- 98
2018-01-08 02:00:00 2.9 0 Calma 7 Sudeste 0 -- -- 97
2018-01-08 01:00:00 2.9 3 Sudoeste 15 Sudoeste 0 -- -- 97
2018-01-08 00:00:00 3.1 4 Sudoeste 18 Sudoeste 0 -- -- 97
2018-01-07 23:00:00 3.1 8 Sudoeste 15 Sudoeste 0 -- -- 97
2018-01-07 22:00:00 3.6 0 Calma 14 Sudoeste 0 -- -- 97
2018-01-07 21:00:00 3.9 5 Sudoeste 11 Oeste 0 -- -- 96
2018-01-07 20:00:00 3.9 7 Sudoeste 15 Sudoeste 0 -- -- 96
2018-01-07 19:00:00 4.4 2 Sur 10 Sur 0 -- -- 96
2018-01-07 18:00:00 4.6 3 Sudoeste 9 Sudoeste 0 -- -- 95
2018-01-07 17:00:00 5.2 0 Calma 9 Sudoeste 0 -- -- 95
2018-01-07 16:00:00 5.2 5 Sudoeste 10 Sudoeste 0 -- -- 95
2018-01-07 15:00:00 5.4 0 Calma -- -- 0.1 -- -- 95
2018-01-07 14:00:00 5.2 0 Calma 11 Sudoeste 0 -- -- 96
2018-01-07 13:00:00 4.9 3 Sudeste 13 Sudoeste 0 -- -- 97
2018-01-07 12:00:00 4.3 0 Calma 12 Sudeste 0 -- -- 97
2018-01-07 11:00:00 3.8 4 Sudoeste 13 Sudoeste 0 -- -- 98
2018-01-07 10:00:00 2.9 7 Sudoeste 14 Sudoeste 0.1 -- -- 98
2018-01-07 09:00:00 2.5 0 Calma 11 Sudoeste 0.7 -- -- 98
2018-01-07 08:00:00 2.5 3 Sudoeste 11 Sudoeste 0.5 -- -- 98
2018-01-07 07:00:00 2.4 5 Sudoeste 12 Sudoeste 0.4 -- -- 98
2018-01-07 06:00:00 2.2 6 Sudoeste 15 Sudoeste 1.1 -- -- 98
2018-01-07 05:00:00 2.2 2 Sudoeste 17 Sudoeste 1.6 -- -- 98
2018-01-07 04:00:00 1.8 10 Sudoeste 24 Sudoeste 3.8 -- -- 98
2018-01-07 03:00:00 1.5 11 Sudoeste 26 Sudoeste 5.8 -- -- 98
2018-01-07 02:00:00 1 3 Sur 18 Sur 4.3 -- -- 97
2018-01-07 01:00:00 0.7 0 Calma 5 Sudoeste 4 -- -- 97
2018-01-07 00:00:00 0.5 0 Calma -- -- 2.5 -- -- 97
2018-01-06 23:00:00 0.3 0 Calma -- -- 2.4 -- -- 97
2018-01-06 22:00:00 0.2 0 Calma -- -- 1.7 -- -- 97
2018-01-06 21:00:00 0 0 Calma -- -- 1.9 -- -- 96
2018-01-06 20:00:00 0 0 Calma -- -- 1.7 -- -- 96
2018-01-06 19:00:00 0 0 Calma -- -- 0.7 -- -- 95
2018-01-06 18:00:00 0 0 Calma -- -- 0.2 -- -- 94
2018-01-06 17:00:00 0.1 0 Calma 5 Este 0 -- -- 94
2018-01-06 16:00:00 0.4 0 Calma 4 Sudeste 2.2 -- -- 94
2018-01-06 15:00:00 2.1 0 Calma 7 Noroeste 3.6 -- -- 94
2018-01-06 14:00:00 3.4 3 Este 15 Este 3.3 -- -- 94
2018-01-06 13:00:00 4.7 7 Nordeste 11 Nordeste 1.8 -- -- 96
2018-01-06 12:00:00 5.6 0 Calma -- -- 1.1 -- -- 96
2018-01-06 11:00:00 5.5 0 Calma -- -- 0.8 -- -- 96
2018-01-06 10:00:00 5.4 0 Calma -- -- 1 -- -- 96
2018-01-06 09:00:00 5.3 0 Calma -- -- 0.6 -- -- 96
2018-01-06 08:00:00 5.3 0 Calma -- -- 0.7 -- -- 95
2018-01-06 07:00:00 5.4 0 Calma -- -- 1.6 -- -- 95
2018-01-06 06:00:00 5.5 0 Calma 5 Este 1.2 -- -- 95
2018-01-06 05:00:00 5.5 4 Este 15 Norte 1.8 -- -- 95
2018-01-06 04:00:00 5.9 0 Calma 7 Sudeste 2.4 -- -- 95
2018-01-06 03:00:00 6.4 0 Calma -- -- 1.9 -- -- 95
2018-01-06 02:00:00 6.5 0 Calma -- -- 1.7 -- -- 94
2018-01-06 01:00:00 6.8 0 Calma -- -- 1.5 -- -- 94
2018-01-06 00:00:00 6.8 0 Calma 10 Este 1.1 -- -- 94
2018-01-05 23:00:00 7.4 0 Calma -- -- 1.5 -- -- 94
2018-01-05 22:00:00 7.6 0 Calma 6 Sur 0.1 -- -- 94
2018-01-05 21:00:00 7.8 0 Calma 8 Este 0.2 -- -- 94
2018-01-05 20:00:00 8.1 3 Oeste 13 Noroeste 0.6 -- -- 94
2018-01-05 19:00:00 8.8 0 Calma 9 Sudeste 0.7 -- -- 94
2018-01-05 18:00:00 9.1 0 Calma -- -- 0.1 -- -- 93
2018-01-05 17:00:00 9.2 0 Calma 4 Oeste 0 -- -- 93
2018-01-05 16:00:00 9.2 3 Sudoeste 14 Sudeste 1.1 -- -- 93
2018-01-05 15:00:00 9 3 Este 7 Norte 2.2 -- -- 91
2018-01-05 14:00:00 9.2 0 Calma -- -- 1.1 -- -- 91
2018-01-05 13:00:00 9.5 0 Calma 5 Este 2 -- -- 90
2018-01-05 12:00:00 9.6 0 Calma 14 Sudoeste 1.4 -- -- 87
2018-01-05 11:00:00 10.1 5 Oeste 27 Oeste 1.7 -- -- 80
2018-01-05 10:00:00 13.6 3 Sudoeste 23 Oeste 0.1 -- -- 59
2018-01-05 09:00:00 14.1 2 Sudeste 30 Este 0 -- -- 55
2018-01-05 08:00:00 14.1 14 Este 44 Este 0 -- -- 54
2018-01-05 07:00:00 14.2 9 Sudeste 42 Este 0 -- -- 55
2018-01-05 06:00:00 14.4 13 Sur 59 Sudeste 0 -- -- 55
2018-01-05 05:00:00 14.4 23 Sur 55 Sur 0 -- -- 55
2018-01-05 04:00:00 14.7 18 Sur 56 Sudeste 0 -- -- 54
2018-01-05 03:00:00 15 9 Sudeste 43 Sur 0 -- -- 53
2018-01-05 02:00:00 15.1 14 Sur 46 Sur 0 -- -- 55
2018-01-05 01:00:00 15.1 14 Sur 44 Sudeste 0 -- -- 57
2018-01-05 00:00:00 15.3 19 Sur 46 Sur 0 -- -- 58
2018-01-04 23:00:00 15.5 16 Sur 45 Sudeste 0 -- -- 57
2018-01-04 22:00:00 15.5 15 Sur 47 Sur 0 -- -- 57
2018-01-04 21:00:00 15.4 8 Sur 46 Sur 0 -- -- 57
2018-01-04 20:00:00 15.3 12 Sudeste 30 Sudeste 0 -- -- 58
2018-01-04 19:00:00 12.9 0 Calma 23 Oeste 0 -- -- 73
2018-01-04 18:00:00 12.6 0 Calma 10 Oeste 0 -- -- 76
2018-01-04 17:00:00 14.3 6 Sudoeste 10 Sudoeste 0 -- -- 73
2018-01-04 16:00:00 15.8 2 Sudoeste 10 Sudeste 0 -- -- 65
2018-01-04 15:00:00 17.1 8 Sudeste 15 Sudeste 0 -- -- 59
2018-01-04 14:00:00 17.2 5 Sur 13 Sudeste 0 -- -- 61
2018-01-04 13:00:00 16.1 3 Sudeste 15 Nordeste 0 -- -- 65
2018-01-04 12:00:00 16.7 3 Sudeste 27 Sur 0 -- -- 64
2018-01-04 11:00:00 11.9 4 Noroeste 10 Oeste 0 -- -- 97
2018-01-04 10:00:00 10.7 0 Calma 5 Sur 0 -- -- 97
2018-01-04 09:00:00 10.4 0 Calma 6 Sudoeste 0 -- -- 97
2018-01-04 08:00:00 10.4 0 Calma 16 Oeste 0 -- -- 97
2018-01-04 07:00:00 10.5 10 Sudoeste 19 Sudoeste 0 -- -- 97
2018-01-04 06:00:00 11.1 7 Oeste 15 Oeste 0 -- -- 97
2018-01-04 05:00:00 11.4 6 Oeste 19 Sudoeste 0.1 -- -- 97
2018-01-04 04:00:00 11.5 10 Sudoeste 20 Sudoeste 0 -- -- 97
2018-01-04 03:00:00 11.7 3 Sudoeste 18 Sur 0 -- -- 97
2018-01-04 02:00:00 12.4 8 Sur 18 Sudoeste 0 -- -- 96
2018-01-04 01:00:00 12.3 8 Sudoeste 23 Sudoeste 0 -- -- 97
2018-01-04 00:00:00 12.3 7 Sudoeste 19 Sudoeste 0 -- -- 97
2018-01-03 23:00:00 12.2 7 Oeste 17 Sudoeste 0 -- -- 97
2018-01-03 22:00:00 12.6 3 Noroeste 17 Oeste 0 -- -- 97
2018-01-03 21:00:00 12.8 4 Sur 12 Sur 0.1 -- -- 96
2018-01-03 20:00:00 13.3 0 Calma 6 Sudoeste 0.1 -- -- 96
2018-01-03 19:00:00 13.5 0 Calma 6 Sudeste 0 -- -- 96
2018-01-03 18:00:00 13.8 0 Calma 9 Norte 0.1 -- -- 95
2018-01-03 17:00:00 14.2 0 Calma 3 Norte 0.9 -- -- 94
2018-01-03 16:00:00 14.3 0 Calma 9 Sudoeste 0.9 -- -- 93
2018-01-03 15:00:00 14.6 0 Calma 9 Sudoeste 0.8 -- -- 90
2018-01-03 14:00:00 15.3 0 Calma 13 Oeste 0.1 -- -- 84
2018-01-03 13:00:00 16 7 Sudoeste 22 Sudoeste 0 -- -- 76
2018-01-03 12:00:00 17.3 2 Sur 22 Sudoeste 0 -- -- 74
2018-01-03 11:00:00 15 5 Sudoeste 19 Sudoeste 0 -- -- 82
2018-01-03 10:00:00 13.5 4 Sudoeste 21 Sudoeste 0 -- -- 87
2018-01-03 09:00:00 13.3 5 Sudoeste 16 Sudoeste 0 -- -- 87
2018-01-03 08:00:00 13 6 Sudoeste 14 Sudoeste 0 -- -- 84
2018-01-03 07:00:00 14.5 8 Sudoeste 17 Sudoeste 0 -- -- 77
2018-01-03 06:00:00 14 8 Sudoeste 17 Sudoeste 0 -- -- 76
2018-01-03 05:00:00 14.5 7 Sur 26 Sur 0 -- -- 76
2018-01-03 04:00:00 13.5 8 Sudoeste 21 Sudoeste 0 -- -- 79
2018-01-03 03:00:00 13.7 4 Sur 20 Sudoeste 0 -- -- 77
2018-01-03 02:00:00 14.1 8 Sudoeste 19 Sudoeste 0 -- -- 78
2018-01-03 01:00:00 13 9 Sudoeste 22 Sudoeste 0 -- -- 85
2018-01-03 00:00:00 11.8 9 Sudoeste 18 Sudoeste 0 -- -- 89
2018-01-02 23:00:00 12.1 6 Sudoeste 15 Oeste 0 -- -- 89
2018-01-02 22:00:00 12 9 Sudoeste 16 Sudoeste 0 -- -- 89
2018-01-02 21:00:00 12.3 0 Calma 14 Sudoeste 0 -- -- 89
2018-01-02 20:00:00 12.6 5 Sudoeste 16 Sudoeste 0 -- -- 88
2018-01-02 19:00:00 12.8 6 Sudoeste 17 Sudoeste 0 -- -- 86
2018-01-02 18:00:00 13.3 8 Sudoeste 17 Sudoeste 0 -- -- 82
2018-01-02 17:00:00 13.8 12 Sudoeste 24 Sudoeste 0 -- -- 79
2018-01-02 16:00:00 13.8 10 Sudoeste 24 Sudoeste 0 -- -- 81
2018-01-02 15:00:00 12.5 8 Sudoeste 30 Sudoeste 0 -- -- 88
2018-01-02 14:00:00 11.5 7 Sudoeste 22 Sudoeste 0.3 -- -- 90
2018-01-02 13:00:00 11.3 10 Sudoeste 28 Sudoeste 0.5 -- -- 89
2018-01-02 12:00:00 10.8 9 Sudoeste 23 Sudoeste 1.8 -- -- 90
2018-01-02 11:00:00 10.6 10 Sudoeste 23 Sudoeste 1.4 -- -- 89
2018-01-02 10:00:00 10.9 8 Sudoeste 26 Sudoeste 0 -- -- 85
2018-01-02 09:00:00 11 11 Sudoeste 30 Sudoeste 0 -- -- 79
2018-01-02 08:00:00 11.8 13 Sudoeste 44 Sudoeste 0 -- -- 76
2018-01-02 07:00:00 10.4 11 Sudoeste 26 Sudoeste 0 -- -- 91
2018-01-02 06:00:00 10 4 Sudoeste 14 Sudoeste 0.1 -- -- 95
2018-01-02 05:00:00 9.6 3 Sudoeste 12 Sudeste 0.1 -- -- 96
2018-01-02 04:00:00 9.4 5 Sudoeste 14 Sudoeste 2.7 -- -- 96
2018-01-02 03:00:00 9.4 0 Calma 5 Este 1.5 -- -- 96
2018-01-02 02:00:00 9.5 3 Sudoeste 6 Sudoeste 0.6 -- -- 96
2018-01-02 01:00:00 9.5 0 Calma -- -- 0.8 -- -- 95
2018-01-02 00:00:00 9.6 0 Calma -- -- 0.8 -- -- 94
2018-01-01 23:00:00 9.9 0 Calma 8 Sudeste 1.6 -- -- 92
2018-01-01 22:00:00 10.6 2 Sur 15 Oeste 1.5 -- -- 87
2018-01-01 21:00:00 10.7 0 Calma 16 Este 3.1 -- -- 89
2018-01-01 20:00:00 11.3 0 Calma 37 Sudoeste 1.8 -- -- 84
2018-01-01 19:00:00 11.3 11 Oeste 58 Sudoeste 3.5 -- -- 83
2018-01-01 18:00:00 10.5 2 Sudoeste 21 Oeste 6.7 -- -- 92
2018-01-01 17:00:00 10 4 Sudoeste 21 Sudoeste 3.2 -- -- 85
2018-01-01 16:00:00 10.4 3 Norte 27 Sudoeste 3.2 -- -- 79
2018-01-01 15:00:00 13.8 13 Sudoeste 50 Sur 0 -- -- 54
2018-01-01 14:00:00 13.5 17 Sur 49 Sudoeste 0 -- -- 54
2018-01-01 13:00:00 12.7 11 Sur 59 Sudeste 0 -- -- 55
2018-01-01 12:00:00 11.8 21 Sur 59 Sudeste 0 -- -- 56
2018-01-01 11:00:00 10.4 18 Sur 51 Sur 0 -- -- 61
2018-01-01 10:00:00 9.3 22 Sur 54 Sudeste 0 -- -- 61
2018-01-01 09:00:00 8.6 23 Sur 55 Sur 0 -- -- 63
2018-01-01 08:00:00 8 13 Sur 41 Sudeste 0 -- -- 63
2018-01-01 07:00:00 8 19 Sur 42 Sur 0 -- -- 63
2018-01-01 06:00:00 6.8 12 Sur 24 Sudoeste 0 -- -- 68
2018-01-01 05:00:00 6.1 8 Sudoeste 26 Sudoeste 0 -- -- 76
2018-01-01 04:00:00 5 15 Sudoeste 24 Sudoeste 0 -- -- 81
2018-01-01 03:00:00 6.6 13 Sudoeste 21 Sudoeste 0 -- -- 73
2018-01-01 02:00:00 6.3 10 Sudoeste 26 Sur 0 -- -- 78
2018-01-01 01:00:00 6.2 12 Sudoeste 25 Sudoeste 0 -- -- 81
2018-01-01 00:00:00 6.5 10 Sudoeste 19 Sudoeste 0 -- -- 83
2017-12-31 23:00:00 6.8 6 Sudoeste 18 Sudoeste 0 -- -- 84
2017-12-31 22:00:00 7.6 6 Sudoeste 17 Sudoeste 0 -- -- 84
2017-12-31 21:00:00 8.5 5 Sudoeste 17 Sudoeste 0 -- -- 83
2017-12-31 20:00:00 7.7 5 Sudoeste 14 Sudoeste 0.1 -- -- 86
2017-12-31 19:00:00 8.1 7 Sudoeste 27 Sur 0.7 -- -- 83
2017-12-31 18:00:00 8.4 11 Sudoeste 24 Sudoeste 2.5 -- -- 82
2017-12-31 17:00:00 8.9 13 Sudoeste 50 Oeste 2.3 -- -- 79
2017-12-31 16:00:00 10.6 8 Oeste 45 Noroeste 1.5 -- -- 79
2017-12-31 15:00:00 16 13 Sur 94 Sudoeste 0 -- -- 48
2017-12-31 14:00:00 16.7 22 Sudoeste 81 Sur 0 -- -- 47
2017-12-31 13:00:00 16.2 24 Sur 77 Sudoeste 0 -- -- 48
2017-12-31 12:00:00 15.5 11 Sudoeste 52 Sudeste 0 -- -- 50
2017-12-31 11:00:00 15.3 14 Sudoeste 66 Sudoeste 0 -- -- 52
2017-12-31 10:00:00 14.7 6 Sur 43 Sudeste 0 -- -- 52
2017-12-31 09:00:00 14.5 11 Sudoeste 35 Sudoeste 0 -- -- 52
2017-12-31 08:00:00 14.4 9 Sudoeste 59 Oeste 0 -- -- 52
2017-12-31 07:00:00 14.3 9 Sudoeste 49 Sudoeste 0 -- -- 52
2017-12-31 06:00:00 14.5 14 Sudoeste 62 Sudeste 0 -- -- 52
2017-12-31 05:00:00 14.4 15 Sur 60 Sudoeste 0 -- -- 54
2017-12-31 04:00:00 14.6 8 Sur 56 Sur 0 -- -- 54
2017-12-31 03:00:00 14.7 24 Sur 60 Sur 0 -- -- 54
2017-12-31 02:00:00 14.5 26 Sur 57 Sur 0 -- -- 54
2017-12-31 01:00:00 14.7 28 Sur 59 Sur 0 -- -- 54